sensor_id;sensor_type;location;lat;lon;timestamp;temperature;humidity
35111;DHT22;21290;50.158;8.658;2023-04-24T00:00:59;11.80;99.90
35111;DHT22;21290;50.158;8.658;2023-04-24T00:03:27;11.70;99.90
35111;DHT22;21290;50.158;8.658;2023-04-24T00:05:54;11.80;99.90
35111;DHT22;21290;50.158;8.658;2023-04-24T00:08:21;11.80;99.90
35111;DHT22;21290;50.158;8.658;2023-04-24T00:10:49;11.80;99.90
35111;DHT22;21290;50.158;8.658;2023-04-24T00:13:15;11.80;99.90
35111;DHT22;21290;50.158;8.658;2023-04-24T00:15:42;11.90;99.90
35111;DHT22;21290;50.158;8.658;2023-04-24T00:18:09;11.90;99.90
35111;DHT22;21290;50.158;8.658;2023-04-24T00:20:35;11.90;99.90
35111;DHT22;21290;50.158;8.658;2023-04-24T00:23:02;11.90;99.90
35111;DHT22;21290;50.158;8.658;2023-04-24T00:25:29;11.90;99.90
35111;DHT22;21290;50.158;8.658;2023-04-24T00:27:55;11.90;99.90
35111;DHT22;21290;50.158;8.658;2023-04-24T00:30:22;11.90;99.90
35111;DHT22;21290;50.158;8.658;2023-04-24T00:32:49;11.90;99.90
35111;DHT22;21290;50.158;8.658;2023-04-24T00:35:16;11.80;99.90
35111;DHT22;21290;50.158;8.658;2023-04-24T00:37:42;11.80;99.90
35111;DHT22;21290;50.158;8.658;2023-04-24T00:40:09;11.80;99.90
35111;DHT22;21290;50.158;8.658;2023-04-24T00:42:36;11.80;99.90
35111;DHT22;21290;50.158;8.658;2023-04-24T00:45:04;11.80;99.90
35111;DHT22;21290;50.158;8.658;2023-04-24T00:47:32;11.80;99.90
35111;DHT22;21290;50.158;8.658;2023-04-24T00:50:02;11.70;99.90
35111;DHT22;21290;50.158;8.658;2023-04-24T00:52:29;11.70;99.90
35111;DHT22;21290;50.158;8.658;2023-04-24T00:54:57;11.70;99.90
35111;DHT22;21290;50.158;8.658;2023-04-24T00:57:24;11.70;99.90
35111;DHT22;21290;50.158;8.658;2023-04-24T00:59:52;11.70;99.90
35111;DHT22;21290;50.158;8.658;2023-04-24T01:02:19;11.70;99.90
35111;DHT22;21290;50.158;8.658;2023-04-24T01:04:47;11.70;99.90
35111;DHT22;21290;50.158;8.658;2023-04-24T01:07:17;11.70;99.90
35111;DHT22;21290;50.158;8.658;2023-04-24T01:09:45;11.70;99.90
35111;DHT22;21290;50.158;8.658;2023-04-24T01:12:15;11.70;99.90
35111;DHT22;21290;50.158;8.658;2023-04-24T01:14:42;11.70;99.90
35111;DHT22;21290;50.158;8.658;2023-04-24T01:17:09;11.70;99.90
35111;DHT22;21290;50.158;8.658;2023-04-24T01:19:35;11.60;99.90
35111;DHT22;21290;50.158;8.658;2023-04-24T01:22:08;11.60;99.90
35111;DHT22;21290;50.158;8.658;2023-04-24T01:24:35;11.60;99.90
35111;DHT22;21290;50.158;8.658;2023-04-24T01:27:01;11.60;99.90
35111;DHT22;21290;50.158;8.658;2023-04-24T01:29:28;11.60;99.90
35111;DHT22;21290;50.158;8.658;2023-04-24T01:31:55;11.60;99.90
35111;DHT22;21290;50.158;8.658;2023-04-24T01:34:21;11.60;99.90
35111;DHT22;21290;50.158;8.658;2023-04-24T01:36:48;11.60;99.90
35111;DHT22;21290;50.158;8.658;2023-04-24T01:39:15;11.60;99.90
35111;DHT22;21290;50.158;8.658;2023-04-24T01:41:42;11.50;99.90
35111;DHT22;21290;50.158;8.658;2023-04-24T01:44:09;11.60;99.90
35111;DHT22;21290;50.158;8.658;2023-04-24T01:46:36;11.50;99.90
35111;DHT22;21290;50.158;8.658;2023-04-24T01:49:02;11.50;99.90
35111;DHT22;21290;50.158;8.658;2023-04-24T01:51:29;11.60;99.90
35111;DHT22;21290;50.158;8.658;2023-04-24T01:53:56;11.50;99.90
35111;DHT22;21290;50.158;8.658;2023-04-24T01:56:23;11.50;99.90
35111;DHT22;21290;50.158;8.658;2023-04-24T01:58:52;11.50;99.90
35111;DHT22;21290;50.158;8.658;2023-04-24T02:01:20;11.50;99.90
35111;DHT22;21290;50.158;8.658;2023-04-24T02:03:47;11.60;99.90
35111;DHT22;21290;50.158;8.658;2023-04-24T02:06:14;11.60;99.90
35111;DHT22;21290;50.158;8.658;2023-04-24T02:08:40;11.60;99.90
35111;DHT22;21290;50.158;8.658;2023-04-24T02:11:09;11.60;99.90
35111;DHT22;21290;50.158;8.658;2023-04-24T02:13:35;11.60;99.90
35111;DHT22;21290;50.158;8.658;2023-04-24T02:16:02;11.60;99.90
35111;DHT22;21290;50.158;8.658;2023-04-24T02:18:29;11.60;99.90
35111;DHT22;21290;50.158;8.658;2023-04-24T02:20:56;11.50;99.90
35111;DHT22;21290;50.158;8.658;2023-04-24T02:23:22;11.50;99.90
35111;DHT22;21290;50.158;8.658;2023-04-24T02:25:49;11.50;99.90
35111;DHT22;21290;50.158;8.658;2023-04-24T02:28:15;11.50;99.90
35111;DHT22;21290;50.158;8.658;2023-04-24T02:30:42;11.50;99.90
35111;DHT22;21290;50.158;8.658;2023-04-24T02:33:09;11.50;99.90
35111;DHT22;21290;50.158;8.658;2023-04-24T02:35:35;11.50;99.90
35111;DHT22;21290;50.158;8.658;2023-04-24T02:38:02;11.50;99.90
35111;DHT22;21290;50.158;8.658;2023-04-24T02:40:29;11.50;99.90
35111;DHT22;21290;50.158;8.658;2023-04-24T02:42:56;11.40;99.90
35111;DHT22;21290;50.158;8.658;2023-04-24T02:45:23;11.40;99.90
35111;DHT22;21290;50.158;8.658;2023-04-24T02:47:49;11.40;99.90
35111;DHT22;21290;50.158;8.658;2023-04-24T02:50:16;11.30;99.90
35111;DHT22;21290;50.158;8.658;2023-04-24T02:52:43;11.30;99.90
35111;DHT22;21290;50.158;8.658;2023-04-24T02:55:09;11.30;99.90
35111;DHT22;21290;50.158;8.658;2023-04-24T02:57:36;11.30;99.90
35111;DHT22;21290;50.158;8.658;2023-04-24T03:00:03;11.30;99.90
35111;DHT22;21290;50.158;8.658;2023-04-24T03:02:33;11.20;99.90
35111;DHT22;21290;50.158;8.658;2023-04-24T03:05:01;11.20;99.90
35111;DHT22;21290;50.158;8.658;2023-04-24T03:07:28;11.20;99.90
35111;DHT22;21290;50.158;8.658;2023-04-24T03:09:55;11.20;99.90
35111;DHT22;21290;50.158;8.658;2023-04-24T03:12:24;11.20;99.90
35111;DHT22;21290;50.158;8.658;2023-04-24T03:14:50;11.20;99.90
35111;DHT22;21290;50.158;8.658;2023-04-24T03:17:17;11.10;99.90
35111;DHT22;21290;50.158;8.658;2023-04-24T03:19:44;11.10;99.90
35111;DHT22;21290;50.158;8.658;2023-04-24T03:22:11;11.20;99.90
35111;DHT22;21290;50.158;8.658;2023-04-24T03:24:38;11.10;99.90
35111;DHT22;21290;50.158;8.658;2023-04-24T03:27:05;11.10;99.90
35111;DHT22;21290;50.158;8.658;2023-04-24T03:29:31;11.10;99.90
35111;DHT22;21290;50.158;8.658;2023-04-24T03:31:58;11.10;99.90
35111;DHT22;21290;50.158;8.658;2023-04-24T03:34:25;11.10;99.90
35111;DHT22;21290;50.158;8.658;2023-04-24T03:36:51;11.10;99.90
35111;DHT22;21290;50.158;8.658;2023-04-24T03:39:19;11.10;99.90
35111;DHT22;21290;50.158;8.658;2023-04-24T03:41:45;11.10;99.90
35111;DHT22;21290;50.158;8.658;2023-04-24T03:44:12;11.10;99.90
35111;DHT22;21290;50.158;8.658;2023-04-24T03:46:38;11.10;99.90
35111;DHT22;21290;50.158;8.658;2023-04-24T03:49:05;11.10;99.90
35111;DHT22;21290;50.158;8.658;2023-04-24T03:51:32;11.00;99.90
35111;DHT22;21290;50.158;8.658;2023-04-24T03:53:58;11.00;99.90
35111;DHT22;21290;50.158;8.658;2023-04-24T03:56:25;11.10;99.90
35111;DHT22;21290;50.158;8.658;2023-04-24T03:58:52;11.00;99.90
35111;DHT22;21290;50.158;8.658;2023-04-24T04:01:18;11.10;99.90
35111;DHT22;21290;50.158;8.658;2023-04-24T04:03:47;11.00;99.90
35111;DHT22;21290;50.158;8.658;2023-04-24T04:06:14;11.00;99.90
35111;DHT22;21290;50.158;8.658;2023-04-24T04:08:41;11.00;99.90
35111;DHT22;21290;50.158;8.658;2023-04-24T04:11:07;11.00;99.90
35111;DHT22;21290;50.158;8.658;2023-04-24T04:13:34;11.00;99.90
35111;DHT22;21290;50.158;8.658;2023-04-24T04:16:00;11.00;99.90
35111;DHT22;21290;50.158;8.658;2023-04-24T04:18:27;11.00;99.90
35111;DHT22;21290;50.158;8.658;2023-04-24T04:20:53;11.00;99.90
35111;DHT22;21290;50.158;8.658;2023-04-24T04:23:20;11.00;99.90
35111;DHT22;21290;50.158;8.658;2023-04-24T04:25:47;11.00;99.90
35111;DHT22;21290;50.158;8.658;2023-04-24T04:28:13;11.00;99.90
35111;DHT22;21290;50.158;8.658;2023-04-24T04:30:40;11.00;99.90
35111;DHT22;21290;50.158;8.658;2023-04-24T04:33:07;11.00;99.90
35111;DHT22;21290;50.158;8.658;2023-04-24T04:35:34;10.90;99.90
35111;DHT22;21290;50.158;8.658;2023-04-24T04:38:01;10.80;99.90
35111;DHT22;21290;50.158;8.658;2023-04-24T04:40:27;10.70;99.90
35111;DHT22;21290;50.158;8.658;2023-04-24T04:42:54;10.60;99.90
35111;DHT22;21290;50.158;8.658;2023-04-24T04:45:21;10.60;99.90
35111;DHT22;21290;50.158;8.658;2023-04-24T04:47:48;10.50;99.90
35111;DHT22;21290;50.158;8.658;2023-04-24T04:50:15;10.50;99.90
35111;DHT22;21290;50.158;8.658;2023-04-24T04:52:42;10.40;99.90
35111;DHT22;21290;50.158;8.658;2023-04-24T04:55:09;10.40;99.90
35111;DHT22;21290;50.158;8.658;2023-04-24T04:57:36;10.30;99.90
35111;DHT22;21290;50.158;8.658;2023-04-24T05:00:03;10.30;99.90
35111;DHT22;21290;50.158;8.658;2023-04-24T05:02:30;10.30;99.90
35111;DHT22;21290;50.158;8.658;2023-04-24T05:04:57;10.30;99.90
35111;DHT22;21290;50.158;8.658;2023-04-24T05:07:24;10.20;99.90
35111;DHT22;21290;50.158;8.658;2023-04-24T05:09:50;10.20;99.90
35111;DHT22;21290;50.158;8.658;2023-04-24T05:12:18;10.20;99.90
35111;DHT22;21290;50.158;8.658;2023-04-24T05:14:45;10.20;99.90
35111;DHT22;21290;50.158;8.658;2023-04-24T05:17:12;10.20;99.90
35111;DHT22;21290;50.158;8.658;2023-04-24T05:19:38;10.20;99.90
35111;DHT22;21290;50.158;8.658;2023-04-24T05:22:05;10.20;99.90
35111;DHT22;21290;50.158;8.658;2023-04-24T05:24:34;10.20;99.90
35111;DHT22;21290;50.158;8.658;2023-04-24T05:27:01;10.20;99.90
35111;DHT22;21290;50.158;8.658;2023-04-24T05:29:29;10.20;99.90
35111;DHT22;21290;50.158;8.658;2023-04-24T05:31:57;10.20;99.90
35111;DHT22;21290;50.158;8.658;2023-04-24T05:34:24;10.20;99.90
35111;DHT22;21290;50.158;8.658;2023-04-24T05:36:51;10.30;99.90
35111;DHT22;21290;50.158;8.658;2023-04-24T05:39:18;10.30;99.90
35111;DHT22;21290;50.158;8.658;2023-04-24T05:41:46;10.30;99.90
35111;DHT22;21290;50.158;8.658;2023-04-24T05:44:12;10.40;99.90
35111;DHT22;21290;50.158;8.658;2023-04-24T05:46:39;10.40;99.90
35111;DHT22;21290;50.158;8.658;2023-04-24T05:49:06;10.50;99.90
35111;DHT22;21290;50.158;8.658;2023-04-24T05:51:32;10.50;99.90
35111;DHT22;21290;50.158;8.658;2023-04-24T05:53:59;10.50;99.90
35111;DHT22;21290;50.158;8.658;2023-04-24T05:56:26;10.70;99.90
35111;DHT22;21290;50.158;8.658;2023-04-24T05:58:52;10.80;99.90
35111;DHT22;21290;50.158;8.658;2023-04-24T06:01:19;11.00;99.90
35111;DHT22;21290;50.158;8.658;2023-04-24T06:03:46;11.10;99.90
35111;DHT22;21290;50.158;8.658;2023-04-24T06:06:13;11.00;99.90
35111;DHT22;21290;50.158;8.658;2023-04-24T06:08:40;11.10;99.90
35111;DHT22;21290;50.158;8.658;2023-04-24T06:11:10;11.20;99.90
35111;DHT22;21290;50.158;8.658;2023-04-24T06:13:36;11.10;99.90
35111;DHT22;21290;50.158;8.658;2023-04-24T06:16:03;11.10;99.90
35111;DHT22;21290;50.158;8.658;2023-04-24T06:18:29;11.10;99.90
35111;DHT22;21290;50.158;8.658;2023-04-24T06:20:56;11.20;99.90
35111;DHT22;21290;50.158;8.658;2023-04-24T06:23:23;11.30;99.90
35111;DHT22;21290;50.158;8.658;2023-04-24T06:25:49;11.30;99.90
35111;DHT22;21290;50.158;8.658;2023-04-24T06:28:16;11.40;99.90
35111;DHT22;21290;50.158;8.658;2023-04-24T06:30:43;11.50;99.90
35111;DHT22;21290;50.158;8.658;2023-04-24T06:33:09;11.50;99.90
35111;DHT22;21290;50.158;8.658;2023-04-24T06:35:47;11.50;99.90
35111;DHT22;21290;50.158;8.658;2023-04-24T06:38:13;11.50;99.90
35111;DHT22;21290;50.158;8.658;2023-04-24T06:40:40;11.40;99.90
35111;DHT22;21290;50.158;8.658;2023-04-24T06:43:06;11.40;99.90
35111;DHT22;21290;50.158;8.658;2023-04-24T06:45:33;11.30;99.90
35111;DHT22;21290;50.158;8.658;2023-04-24T06:48:00;11.40;99.90
35111;DHT22;21290;50.158;8.658;2023-04-24T06:50:27;11.50;99.90
35111;DHT22;21290;50.158;8.658;2023-04-24T06:52:53;11.60;99.90
35111;DHT22;21290;50.158;8.658;2023-04-24T06:55:20;11.50;99.90
35111;DHT22;21290;50.158;8.658;2023-04-24T06:57:46;11.60;99.90
35111;DHT22;21290;50.158;8.658;2023-04-24T07:00:13;11.70;99.90
35111;DHT22;21290;50.158;8.658;2023-04-24T07:02:40;11.70;99.90
35111;DHT22;21290;50.158;8.658;2023-04-24T07:05:07;11.70;99.90
35111;DHT22;21290;50.158;8.658;2023-04-24T07:07:34;11.80;99.90
35111;DHT22;21290;50.158;8.658;2023-04-24T07:10:05;11.90;99.90
35111;DHT22;21290;50.158;8.658;2023-04-24T07:12:31;12.00;99.90
35111;DHT22;21290;50.158;8.658;2023-04-24T07:14:59;12.10;99.90
35111;DHT22;21290;50.158;8.658;2023-04-24T07:17:26;12.00;99.90
35111;DHT22;21290;50.158;8.658;2023-04-24T07:19:53;12.10;99.90
35111;DHT22;21290;50.158;8.658;2023-04-24T07:22:19;12.20;99.90
35111;DHT22;21290;50.158;8.658;2023-04-24T07:24:46;12.20;99.90
35111;DHT22;21290;50.158;8.658;2023-04-24T07:27:12;12.30;99.90
35111;DHT22;21290;50.158;8.658;2023-04-24T07:29:41;12.40;99.90
35111;DHT22;21290;50.158;8.658;2023-04-24T07:32:08;12.70;99.90
35111;DHT22;21290;50.158;8.658;2023-04-24T07:34:35;12.80;99.90
35111;DHT22;21290;50.158;8.658;2023-04-24T07:37:02;13.00;99.90
35111;DHT22;21290;50.158;8.658;2023-04-24T07:39:29;13.00;99.90
35111;DHT22;21290;50.158;8.658;2023-04-24T07:41:55;13.10;99.90
35111;DHT22;21290;50.158;8.658;2023-04-24T07:44:22;13.10;99.90
35111;DHT22;21290;50.158;8.658;2023-04-24T07:46:48;13.30;99.90
35111;DHT22;21290;50.158;8.658;2023-04-24T07:49:15;13.30;99.90
35111;DHT22;21290;50.158;8.658;2023-04-24T07:51:45;13.30;99.90
35111;DHT22;21290;50.158;8.658;2023-04-24T07:54:12;13.30;99.90
35111;DHT22;21290;50.158;8.658;2023-04-24T07:56:38;13.40;99.90
35111;DHT22;21290;50.158;8.658;2023-04-24T07:59:06;13.60;99.90
35111;DHT22;21290;50.158;8.658;2023-04-24T08:01:32;13.60;99.90
35111;DHT22;21290;50.158;8.658;2023-04-24T08:03:59;13.60;99.90
35111;DHT22;21290;50.158;8.658;2023-04-24T08:06:26;13.10;99.90
35111;DHT22;21290;50.158;8.658;2023-04-24T08:08:56;13.00;99.90
35111;DHT22;21290;50.158;8.658;2023-04-24T08:11:24;13.50;99.90
35111;DHT22;21290;50.158;8.658;2023-04-24T08:13:51;14.50;99.90
35111;DHT22;21290;50.158;8.658;2023-04-24T08:16:17;15.30;99.90
35111;DHT22;21290;50.158;8.658;2023-04-24T08:18:44;16.40;99.30
35111;DHT22;21290;50.158;8.658;2023-04-24T08:21:11;17.40;97.00
35111;DHT22;21290;50.158;8.658;2023-04-24T08:23:39;17.80;95.20
35111;DHT22;21290;50.158;8.658;2023-04-24T08:26:05;18.10;93.50
35111;DHT22;21290;50.158;8.658;2023-04-24T08:28:33;17.80;93.70
35111;DHT22;21290;50.158;8.658;2023-04-24T08:31:00;18.20;92.70
35111;DHT22;21290;50.158;8.658;2023-04-24T08:33:27;18.70;91.20
35111;DHT22;21290;50.158;8.658;2023-04-24T08:35:59;19.10;90.80
35111;DHT22;21290;50.158;8.658;2023-04-24T08:38:27;19.90;87.90
35111;DHT22;21290;50.158;8.658;2023-04-24T08:40:53;21.00;82.80
35111;DHT22;21290;50.158;8.658;2023-04-24T08:43:22;21.50;79.10
35111;DHT22;21290;50.158;8.658;2023-04-24T08:45:49;20.90;77.10
35111;DHT22;21290;50.158;8.658;2023-04-24T08:48:16;20.00;79.60
35111;DHT22;21290;50.158;8.658;2023-04-24T08:50:57;18.20;83.10
35111;DHT22;21290;50.158;8.658;2023-04-24T08:53:25;16.50;88.20
35111;DHT22;21290;50.158;8.658;2023-04-24T08:55:54;15.50;91.80
35111;DHT22;21290;50.158;8.658;2023-04-24T08:58:24;14.80;93.10
35111;DHT22;21290;50.158;8.658;2023-04-24T09:00:51;14.20;95.30
35111;DHT22;21290;50.158;8.658;2023-04-24T09:03:21;13.80;97.00
35111;DHT22;21290;50.158;8.658;2023-04-24T09:05:48;13.40;99.30
35111;DHT22;21290;50.158;8.658;2023-04-24T09:08:18;13.00;99.90
35111;DHT22;21290;50.158;8.658;2023-04-24T09:10:46;12.80;99.90
35111;DHT22;21290;50.158;8.658;2023-04-24T09:13:17;12.60;99.90
35111;DHT22;21290;50.158;8.658;2023-04-24T09:15:44;12.50;99.90
35111;DHT22;21290;50.158;8.658;2023-04-24T09:18:11;12.30;99.90
35111;DHT22;21290;50.158;8.658;2023-04-24T09:20:57;12.30;99.90
35111;DHT22;21290;50.158;8.658;2023-04-24T09:23:27;12.30;99.90
35111;DHT22;21290;50.158;8.658;2023-04-24T09:25:54;12.30;99.90
35111;DHT22;21290;50.158;8.658;2023-04-24T09:28:32;12.40;99.90
35111;DHT22;21290;50.158;8.658;2023-04-24T09:31:28;12.40;99.90
35111;DHT22;21290;50.158;8.658;2023-04-24T09:34:01;12.30;99.90
35111;DHT22;21290;50.158;8.658;2023-04-24T09:36:40;12.20;99.90
35111;DHT22;21290;50.158;8.658;2023-04-24T09:39:09;12.00;99.90
35111;DHT22;21290;50.158;8.658;2023-04-24T09:41:55;11.90;99.90
35111;DHT22;21290;50.158;8.658;2023-04-24T09:44:27;11.90;99.90
35111;DHT22;21290;50.158;8.658;2023-04-24T09:46:56;11.90;99.90
35111;DHT22;21290;50.158;8.658;2023-04-24T09:49:25;11.90;99.90
35111;DHT22;21290;50.158;8.658;2023-04-24T09:52:02;11.90;99.90
35111;DHT22;21290;50.158;8.658;2023-04-24T09:54:29;11.90;99.90
35111;DHT22;21290;50.158;8.658;2023-04-24T09:56:56;11.80;99.90
35111;DHT22;21290;50.158;8.658;2023-04-24T09:59:23;11.80;99.90
35111;DHT22;21290;50.158;8.658;2023-04-24T10:01:49;11.70;99.90
35111;DHT22;21290;50.158;8.658;2023-04-24T10:04:21;11.70;99.90
35111;DHT22;21290;50.158;8.658;2023-04-24T10:06:51;11.60;99.90
35111;DHT22;21290;50.158;8.658;2023-04-24T10:09:19;11.70;99.90
35111;DHT22;21290;50.158;8.658;2023-04-24T10:11:49;11.70;99.90
35111;DHT22;21290;50.158;8.658;2023-04-24T10:14:25;11.80;99.90
35111;DHT22;21290;50.158;8.658;2023-04-24T10:16:55;11.90;99.90
35111;DHT22;21290;50.158;8.658;2023-04-24T10:19:26;12.00;99.90
35111;DHT22;21290;50.158;8.658;2023-04-24T10:21:52;12.00;99.90
35111;DHT22;21290;50.158;8.658;2023-04-24T10:24:20;12.00;99.90
35111;DHT22;21290;50.158;8.658;2023-04-24T10:26:47;12.00;99.90
35111;DHT22;21290;50.158;8.658;2023-04-24T10:29:17;12.00;99.90
35111;DHT22;21290;50.158;8.658;2023-04-24T10:31:44;12.10;99.90
35111;DHT22;21290;50.158;8.658;2023-04-24T10:34:16;12.00;99.90
35111;DHT22;21290;50.158;8.658;2023-04-24T10:36:49;12.00;99.90
35111;DHT22;21290;50.158;8.658;2023-04-24T10:39:17;11.80;99.90
35111;DHT22;21290;50.158;8.658;2023-04-24T10:41:45;11.60;99.90
35111;DHT22;21290;50.158;8.658;2023-04-24T10:44:14;11.40;99.90
35111;DHT22;21290;50.158;8.658;2023-04-24T10:46:46;11.30;99.90
35111;DHT22;21290;50.158;8.658;2023-04-24T10:49:14;11.10;99.90
35111;DHT22;21290;50.158;8.658;2023-04-24T10:51:50;10.90;99.90
35111;DHT22;21290;50.158;8.658;2023-04-24T10:54:28;10.70;99.90
35111;DHT22;21290;50.158;8.658;2023-04-24T11:02:40;11.30;99.90
35111;DHT22;21290;50.158;8.658;2023-04-24T11:05:10;11.70;99.90
35111;DHT22;21290;50.158;8.658;2023-04-24T11:10:46;12.10;99.90
35111;DHT22;21290;50.158;8.658;2023-04-24T11:13:15;12.50;99.90
35111;DHT22;21290;50.158;8.658;2023-04-24T11:15:42;12.60;99.90
35111;DHT22;21290;50.158;8.658;2023-04-24T11:18:14;12.60;99.90
35111;DHT22;21290;50.158;8.658;2023-04-24T11:20:45;12.60;99.90
35111;DHT22;21290;50.158;8.658;2023-04-24T11:23:13;12.60;99.90
35111;DHT22;21290;50.158;8.658;2023-04-24T11:25:41;12.80;99.90
35111;DHT22;21290;50.158;8.658;2023-04-24T11:28:14;12.90;99.90
35111;DHT22;21290;50.158;8.658;2023-04-24T11:30:42;13.30;99.90
35111;DHT22;21290;50.158;8.658;2023-04-24T11:33:09;13.60;99.90
35111;DHT22;21290;50.158;8.658;2023-04-24T11:35:39;14.80;99.90
35111;DHT22;21290;50.158;8.658;2023-04-24T11:38:06;16.00;99.90
35111;DHT22;21290;50.158;8.658;2023-04-24T11:40:51;16.30;99.90
35111;DHT22;21290;50.158;8.658;2023-04-24T11:43:18;16.30;99.90
35111;DHT22;21290;50.158;8.658;2023-04-24T11:45:49;16.00;99.90
35111;DHT22;21290;50.158;8.658;2023-04-24T11:48:20;15.30;99.90
35111;DHT22;21290;50.158;8.658;2023-04-24T11:50:49;14.60;99.90
35111;DHT22;21290;50.158;8.658;2023-04-24T11:53:19;14.10;99.90
35111;DHT22;21290;50.158;8.658;2023-04-24T11:55:46;13.20;99.90
35111;DHT22;21290;50.158;8.658;2023-04-24T11:58:13;12.80;99.90
35111;DHT22;21290;50.158;8.658;2023-04-24T12:00:40;12.60;99.90
35111;DHT22;21290;50.158;8.658;2023-04-24T12:03:09;12.60;99.90
35111;DHT22;21290;50.158;8.658;2023-04-24T12:05:36;12.80;99.90
35111;DHT22;21290;50.158;8.658;2023-04-24T12:08:03;12.90;99.90
35111;DHT22;21290;50.158;8.658;2023-04-24T12:10:32;12.90;99.90
35111;DHT22;21290;50.158;8.658;2023-04-24T12:12:59;12.70;99.90
35111;DHT22;21290;50.158;8.658;2023-04-24T12:15:27;12.70;99.90
35111;DHT22;21290;50.158;8.658;2023-04-24T12:17:54;12.80;99.90
35111;DHT22;21290;50.158;8.658;2023-04-24T12:20:29;12.70;99.90
35111;DHT22;21290;50.158;8.658;2023-04-24T12:22:57;12.50;99.90
35111;DHT22;21290;50.158;8.658;2023-04-24T12:25:29;12.00;99.90
35111;DHT22;21290;50.158;8.658;2023-04-24T12:30:34;10.90;99.90
35111;DHT22;21290;50.158;8.658;2023-04-24T12:33:02;10.60;99.90
35111;DHT22;21290;50.158;8.658;2023-04-24T12:35:31;10.30;99.90
35111;DHT22;21290;50.158;8.658;2023-04-24T12:38:08;10.50;99.90
35111;DHT22;21290;50.158;8.658;2023-04-24T12:40:35;10.80;99.90
35111;DHT22;21290;50.158;8.658;2023-04-24T12:43:15;11.20;99.90
35111;DHT22;21290;50.158;8.658;2023-04-24T12:45:42;11.50;99.90
35111;DHT22;21290;50.158;8.658;2023-04-24T12:48:09;11.70;99.90
35111;DHT22;21290;50.158;8.658;2023-04-24T12:50:36;11.60;99.90
35111;DHT22;21290;50.158;8.658;2023-04-24T12:53:02;11.70;99.90
35111;DHT22;21290;50.158;8.658;2023-04-24T12:55:29;11.90;99.90
35111;DHT22;21290;50.158;8.658;2023-04-24T12:57:55;12.20;99.90
35111;DHT22;21290;50.158;8.658;2023-04-24T13:00:22;12.30;99.90
35111;DHT22;21290;50.158;8.658;2023-04-24T13:02:49;12.30;99.90
35111;DHT22;21290;50.158;8.658;2023-04-24T13:05:16;12.60;99.90
35111;DHT22;21290;50.158;8.658;2023-04-24T13:07:43;13.00;99.90
35111;DHT22;21290;50.158;8.658;2023-04-24T13:10:09;13.50;99.90
35111;DHT22;21290;50.158;8.658;2023-04-24T13:12:36;13.70;99.90
35111;DHT22;21290;50.158;8.658;2023-04-24T13:15:04;13.80;99.90
35111;DHT22;21290;50.158;8.658;2023-04-24T13:17:30;13.90;99.90
35111;DHT22;21290;50.158;8.658;2023-04-24T13:19:57;14.20;99.90
35111;DHT22;21290;50.158;8.658;2023-04-24T13:22:24;14.40;99.90
35111;DHT22;21290;50.158;8.658;2023-04-24T13:24:51;14.50;99.90
35111;DHT22;21290;50.158;8.658;2023-04-24T13:27:18;14.40;99.90
35111;DHT22;21290;50.158;8.658;2023-04-24T13:29:45;14.20;99.90
35111;DHT22;21290;50.158;8.658;2023-04-24T13:32:12;14.10;99.90
35111;DHT22;21290;50.158;8.658;2023-04-24T13:34:39;14.20;99.90
35111;DHT22;21290;50.158;8.658;2023-04-24T13:37:06;14.10;99.90
35111;DHT22;21290;50.158;8.658;2023-04-24T13:39:34;13.90;99.90
35111;DHT22;21290;50.158;8.658;2023-04-24T13:42:01;13.40;99.90
35111;DHT22;21290;50.158;8.658;2023-04-24T13:44:30;12.90;99.90
35111;DHT22;21290;50.158;8.658;2023-04-24T13:46:57;12.60;99.90
35111;DHT22;21290;50.158;8.658;2023-04-24T13:49:24;12.60;99.90
35111;DHT22;21290;50.158;8.658;2023-04-24T13:51:52;13.00;99.90
35111;DHT22;21290;50.158;8.658;2023-04-24T13:54:19;13.30;99.90
35111;DHT22;21290;50.158;8.658;2023-04-24T13:56:46;13.60;99.90
35111;DHT22;21290;50.158;8.658;2023-04-24T13:59:13;13.90;99.90
35111;DHT22;21290;50.158;8.658;2023-04-24T14:01:39;14.00;99.90
35111;DHT22;21290;50.158;8.658;2023-04-24T14:04:06;14.10;99.90
35111;DHT22;21290;50.158;8.658;2023-04-24T14:06:33;13.90;99.90
35111;DHT22;21290;50.158;8.658;2023-04-24T14:09:00;14.00;99.90
35111;DHT22;21290;50.158;8.658;2023-04-24T14:11:26;14.20;99.90
35111;DHT22;21290;50.158;8.658;2023-04-24T14:13:54;14.50;99.90
35111;DHT22;21290;50.158;8.658;2023-04-24T14:16:22;14.90;99.90
35111;DHT22;21290;50.158;8.658;2023-04-24T14:18:49;15.00;99.90
35111;DHT22;21290;50.158;8.658;2023-04-24T14:21:16;14.80;99.90
35111;DHT22;21290;50.158;8.658;2023-04-24T14:23:43;14.70;99.90
35111;DHT22;21290;50.158;8.658;2023-04-24T14:26:10;14.70;99.90
35111;DHT22;21290;50.158;8.658;2023-04-24T14:28:37;14.80;99.90
35111;DHT22;21290;50.158;8.658;2023-04-24T14:31:04;14.60;99.90
35111;DHT22;21290;50.158;8.658;2023-04-24T14:33:31;14.30;99.90
35111;DHT22;21290;50.158;8.658;2023-04-24T14:35:57;14.20;99.90
35111;DHT22;21290;50.158;8.658;2023-04-24T14:38:24;14.20;99.90
35111;DHT22;21290;50.158;8.658;2023-04-24T14:40:50;14.20;99.90
35111;DHT22;21290;50.158;8.658;2023-04-24T14:43:32;14.10;99.90
35111;DHT22;21290;50.158;8.658;2023-04-24T14:46:01;14.00;99.90
35111;DHT22;21290;50.158;8.658;2023-04-24T14:48:28;14.00;99.90
35111;DHT22;21290;50.158;8.658;2023-04-24T14:50:55;13.80;99.90
35111;DHT22;21290;50.158;8.658;2023-04-24T14:53:21;13.80;99.90
35111;DHT22;21290;50.158;8.658;2023-04-24T14:55:48;13.80;99.90
35111;DHT22;21290;50.158;8.658;2023-04-24T14:58:14;13.80;99.90
35111;DHT22;21290;50.158;8.658;2023-04-24T15:00:41;13.80;99.90
35111;DHT22;21290;50.158;8.658;2023-04-24T15:03:07;14.00;99.90
35111;DHT22;21290;50.158;8.658;2023-04-24T15:05:35;14.00;99.90
35111;DHT22;21290;50.158;8.658;2023-04-24T15:08:02;14.10;99.90
35111;DHT22;21290;50.158;8.658;2023-04-24T15:10:29;14.20;99.90
35111;DHT22;21290;50.158;8.658;2023-04-24T15:12:56;14.30;99.90
35111;DHT22;21290;50.158;8.658;2023-04-24T15:15:22;14.30;99.90
35111;DHT22;21290;50.158;8.658;2023-04-24T15:17:49;14.20;99.90
35111;DHT22;21290;50.158;8.658;2023-04-24T15:20:16;14.10;99.90
35111;DHT22;21290;50.158;8.658;2023-04-24T15:22:42;14.10;99.90
35111;DHT22;21290;50.158;8.658;2023-04-24T15:25:09;14.00;99.90
35111;DHT22;21290;50.158;8.658;2023-04-24T15:27:40;13.90;99.90
35111;DHT22;21290;50.158;8.658;2023-04-24T15:30:08;13.70;99.90
35111;DHT22;21290;50.158;8.658;2023-04-24T15:32:34;13.60;99.90
35111;DHT22;21290;50.158;8.658;2023-04-24T15:35:01;13.50;99.90
35111;DHT22;21290;50.158;8.658;2023-04-24T15:37:34;13.50;99.90
35111;DHT22;21290;50.158;8.658;2023-04-24T15:40:01;13.50;99.90
35111;DHT22;21290;50.158;8.658;2023-04-24T15:42:30;13.50;99.90
35111;DHT22;21290;50.158;8.658;2023-04-24T15:44:57;13.60;99.90